KNYG/NYG METAR and TAF weather

Enter ICAO airport designator
Station Type Date Time Source
KNYG METAR 2018/12/15 03:56 UTC NOAA

KNYG 150356Z AUTO 04012KT 6SM BR OVC006 08/08 A3019 RMK AO2 SLP225 T00780078


Station Type Date Time Source
KNYG Decoded METAR 2018/12/15 03:56 UTC NOAA

QUANTICO MARINE CORPS AIRFAC, VA, United States (KNYG) 38-30N 077-18W 3M
Dec 14, 2018 - 10:56 PM EST / 2018.12.15 0356 UTC
Wind: from the NE (040 degrees) at 14 MPH (12 KT):0
Visibility: 6 mile(s):0
Sky conditions: overcast
Weather: mist
Temperature: 46.0 F (7.8 C)
Dew Point: 46.0 F (7.8 C)
Relative Humidity: 100%
Pressure (altimeter): 30.19 in. Hg (1022 hPa)
ob: KNYG 150356Z AUTO 04012KT 6SM BR OVC006 08/08 A3019 RMK AO2 SLP225 T00780078
cycle: 4

Station Type Date Time Source
KNYG TAF 2018/12/14 15:55 UTC NOAA

TAF KNYG 1415/1515 VRB06KT 9999 BKN070 OVC080 641209 QNH3030INS
FM142100 VRB06KT 8000 -SHRA BR BKN025 OVC030 641009 QNH3025INS
BECMG 1423/1501 VRB06KT 4800 +SHRA BR BKN008 OVC015 641009 540003 QNH3002INS
TEMPO 1503/1509 06010G20KT 3200 +SHRA BR
FM150900 05010KT 8000 SHRA BR BKN005 OVC010 641009 540003 QNH2999INS T04/1500Z T11/1515Z LAST NO
AMDS 1415 NXT 1709


Example: see airport list